Hauptseite
METAR-TAF:

METAR-TAF

Flughäfen :

New Haven, Connecticut, Vereinigte Staaten

Breite: 41-15-50N, Länge: 072-53-14W, Höhe: 4 m

Beobachtung

Neuester Wetterbericht von vor 14 Minuten, um 09:53 UTC
Wind 3 kt aus Süd/Südwest
Temperatur 16°C
Luftfeuchtigkeit 94%
Luftdruck 1024 hPa
Sichtweite: 2.4 km
Geschlossene Wolkendecke in der Höhe von 300 ft
feuchter Dunst

METAR: KHVN 270953Z 21003KT 1 1/2SM R02/4500VP6000FT BR OVC003 16/15 A3024 RMK AO2 SLP238 T01560150

Zeit: 06:07 (10:07 UTC)


TAF: fehlend

Wetterbeobachtungen und Prognosen von mehr als 4000 Flughäfen (METAR und TAF Bericht).

Die verfügbaren Stationen werden durch gelbe und rote Markierungen auf der Karte dargestellt.

Führen Sie die Maus auf sie, um den Namen der Station zu sehen.

Darauf klicken, um die Beobachtung von Wetterbeobachtungen und Prognosen zu sehen.

Um die Karte zu ändern : klicken Sie auf den grünen Tasten mit einem schwarzen Kreuz Zum Vergrößern, auf den grünen Button mit einem Gedankenstrich zu verkleinern, oder auf die grünen Pfeile für benachbarte Karten.


METAR-TAF: